This is the latest recevied weather packets stored in our database for station/object OH2TI. If no packets are shown the sender has not sent any weather packets the latest 10 day(s).
| Time | Temp. | Humidity | Pressure | Rain* | Wind** | Luminosity | Snow |
|---|---|---|---|---|---|---|---|
| 1777917859 | 9.44° C | 84% | 998.7 hPa | - | - | - | - |
| 1777917452 | 9.44° C | 84% | 998.6 hPa | - | - | - | - |
| 1777916812 | 9.44° C | 83% | 998.6 hPa | - | - | - | - |
| 1777916202 | 10° C | 83% | 998.6 hPa | - | - | - | - |
| 1777915429 | 10° C | 81% | 998.6 hPa | - | - | - | - |
| 1777914724 | 10.56° C | 80% | 998.5 hPa | - | - | - | - |
| 1777914212 | 10.56° C | 79% | 998.5 hPa | - | - | - | - |
| 1777913484 | 10.56° C | 79% | 998.3 hPa | - | - | - | - |
| 1777912941 | 10.56° C | 80% | 998.3 hPa | - | - | - | - |
| 1777912542 | 10.56° C | 80% | 998.3 hPa | - | - | - | - |
| 1777911861 | 10.56° C | 79% | 998.2 hPa | - | - | - | - |
| 1777911111 | 11.11° C | 77% | 998.2 hPa | - | - | - | - |
| 1777910309 | 11.67° C | 74% | 998.1 hPa | - | - | - | - |
| 1777909489 | 11.67° C | 75% | 998.2 hPa | - | - | - | - |
| 1777908649 | 12.22° C | 71% | 998.2 hPa | - | - | - | - |
| 1777908182 | 11.67° C | 72% | 998.3 hPa | - | - | - | - |
| 1777907802 | 12.22° C | 70% | 998.4 hPa | - | - | - | - |
| 1777906969 | 11.67° C | 74% | 998.2 hPa | - | - | - | - |
| 1777906339 | 11.67° C | 73% | 998.2 hPa | - | - | - | - |
| 1777905514 | 11.67° C | 72% | 998.3 hPa | - | - | - | - |
| 1777904769 | 11.11° C | 75% | 998.3 hPa | - | - | - | - |
| 1777904459 | 11.11° C | 76% | 998.3 hPa | - | - | - | - |
| 1777903851 | 11.11° C | 78% | 998.3 hPa | - | - | - | - |
| 1777903469 | 10.56° C | 79% | 998.3 hPa | - | - | - | - |
| 1777903026 | 10.56° C | 82% | 998.3 hPa | - | - | - | - |
* Rain since midnight (hover to see other rain measurements)
** Current wind speed in m/s (hover to see current wind gust speed)